Time;durP1;ratioP1;P1;durP2;ratioP2;P2;SDS_P1;SDS_P2;PMS_P1;PMS_P2;Temp;Humidity;BMP_temperature;BMP_pressure;BME280_temperature;BME280_humidity;BME280_pressure;Samples;Min_cycle;Max_cycle;Signal;HPM_P1;HPM_P2
2021/08/08 00:00:18;;;;;;;0.40;0.40;;;;;;;13.26;100.00;95357.50;1035118;28;20022;-60
2021/08/08 00:00:48;;;;;;;3.13;0.52;;;;;;;13.26;100.00;95357.50;1038598;28;20347;-65
2021/08/08 00:01:19;;;;;;;1.77;0.20;;;;;;;13.25;100.00;95354.09;1037693;28;20355;-62
2021/08/08 00:01:50;;;;;;;3.45;0.57;;;;;;;13.26;100.00;95358.28;1038697;28;20376;-65
2021/08/08 00:02:20;;;;;;;1.80;0.47;;;;;;;13.26;100.00;95353.03;1039231;28;20268;-66
2021/08/08 00:02:51;;;;;;;1.75;0.30;;;;;;;13.25;100.00;95358.59;1039226;28;20480;-66
2021/08/08 00:03:21;;;;;;;3.08;0.40;;;;;;;13.25;100.00;95356.75;1043041;28;20466;-65
2021/08/08 00:03:52;;;;;;;1.45;0.50;;;;;;;13.26;100.00;95358.28;1043054;28;20028;-65
2021/08/08 00:04:22;;;;;;;3.80;0.63;;;;;;;13.29;100.00;95357.72;1047413;28;20035;-65
2021/08/08 00:04:53;;;;;;;3.97;0.50;;;;;;;13.28;100.00;95360.63;1043064;28;20025;-65
2021/08/08 00:05:23;;;;;;;1.60;0.40;;;;;;;13.26;100.00;95357.50;1038879;28;20030;-64
2021/08/08 00:05:54;;;;;;;3.13;0.63;;;;;;;13.28;100.00;95352.72;1040916;28;20018;-65
2021/08/08 00:06:24;;;;;;;10.75;1.05;;;;;;;13.27;100.00;95354.56;1047149;28;20027;-65
2021/08/08 00:06:55;;;;;;;0.65;0.30;;;;;;;13.29;100.00;95362.22;1047368;28;20024;-66
2021/08/08 00:07:25;;;;;;;0.55;0.30;;;;;;;13.29;100.00;95357.72;1047124;28;20035;-66
2021/08/08 00:07:56;;;;;;;0.40;0.40;;;;;;;13.30;100.00;95363.75;1046868;28;20031;-66
2021/08/08 00:08:28;;;;;;;1.10;0.40;;;;;;;13.32;100.00;95351.09;1043145;28;20127;-65
2021/08/08 00:08:59;;;;;;;8.07;1.15;;;;;;;13.30;100.00;95354.00;1043109;28;20495;-65
2021/08/08 00:09:30;;;;;;;4.32;0.50;;;;;;;13.29;100.00;95347.19;1042684;28;20259;-65
2021/08/08 00:10:00;;;;;;;2.58;0.60;;;;;;;13.29;100.00;95356.94;1043121;28;20017;-65
2021/08/08 00:10:31;;;;;;;1.58;0.30;;;;;;;13.28;100.00;95348.25;1038664;28;20021;-65
2021/08/08 00:11:01;;;;;;;1.98;0.32;;;;;;;13.28;100.00;95350.88;1037200;28;20105;-65
2021/08/08 00:11:32;;;;;;;0.60;0.40;;;;;;;13.26;100.00;95346.97;1043071;28;20032;-65
2021/08/08 00:12:03;;;;;;;3.63;0.80;;;;;;;13.27;100.00;95353.81;1038296;28;20072;-62
2021/08/08 00:12:33;;;;;;;2.28;0.45;;;;;;;13.25;100.00;95351.47;1042976;28;20041;-65
2021/08/08 00:13:03;;;;;;;7.72;0.68;;;;;;;13.26;100.00;95355.66;1038753;28;20017;-65
2021/08/08 00:13:34;;;;;;;3.22;0.50;;;;;;;13.26;100.00;95347.75;1042709;28;20053;-65
2021/08/08 00:14:05;;;;;;;1.83;0.32;;;;;;;13.21;100.00;95345.16;1030728;28;20026;-66
2021/08/08 00:14:36;;;;;;;0.80;0.50;;;;;;;13.20;100.00;95344.38;1042745;28;20100;-65
2021/08/08 00:15:07;;;;;;;3.20;0.57;;;;;;;13.24;100.00;95355.16;1043042;28;20017;-65
2021/08/08 00:15:38;;;;;;;0.95;0.60;;;;;;;13.26;100.00;95354.88;1035416;28;20038;-65
2021/08/08 00:16:09;;;;;;;1.67;0.70;;;;;;;13.25;100.00;95354.09;1042565;28;20336;-65
2021/08/08 00:16:39;;;;;;;2.05;0.38;;;;;;;13.26;100.00;95357.50;1039182;28;20693;-65
2021/08/08 00:17:10;;;;;;;3.67;0.60;;;;;;;13.24;100.00;95354.34;1035375;28;20041;-65
2021/08/08 00:17:40;;;;;;;5.72;0.43;;;;;;;13.25;100.00;95364.63;1037456;28;20049;-65
2021/08/08 00:18:11;;;;;;;2.30;0.40;;;;;;;13.25;100.00;95356.75;1039155;28;20021;-65
2021/08/08 00:18:41;;;;;;;3.90;0.55;;;;;;;13.24;100.00;95355.16;1043102;28;20036;-65
2021/08/08 00:19:12;;;;;;;0.28;0.20;;;;;;;13.26;100.00;95353.03;1043339;28;20033;-65
2021/08/08 00:19:42;;;;;;;2.83;0.40;;;;;;;13.27;100.00;95351.94;1041879;28;20494;-66
2021/08/08 00:20:13;;;;;;;1.27;0.43;;;;;;;13.28;100.00;95355.34;1042899;28;20029;-66
2021/08/08 00:20:43;;;;;;;2.17;0.35;;;;;;;13.29;100.00;95352.44;1043200;28;20029;-65
2021/08/08 00:21:14;;;;;;;4.55;0.40;;;;;;;13.29;100.00;95347.19;1045295;28;20066;-65
2021/08/08 00:21:44;;;;;;;0.70;0.45;;;;;;;13.27;100.00;95348.53;1046595;28;20044;-65
2021/08/08 00:22:15;;;;;;;2.13;0.60;;;;;;;13.28;100.00;95345.63;1047117;28;20028;-64
2021/08/08 00:22:45;;;;;;;0.75;0.40;;;;;;;13.30;100.00;95350.59;1043570;28;20009;-64
2021/08/08 00:23:16;;;;;;;1.52;0.50;;;;;;;13.29;100.00;95349.81;1047187;28;20039;-66
2021/08/08 00:23:46;;;;;;;1.80;0.35;;;;;;;13.28;100.00;95356.16;1043142;28;20025;-62
2021/08/08 00:24:16;;;;;;;0.43;0.17;;;;;;;13.28;100.00;95356.16;1042912;28;20025;-64
2021/08/08 00:24:47;;;;;;;3.33;0.47;;;;;;;13.28;100.00;95356.16;1046981;28;20027;-65
2021/08/08 00:25:17;;;;;;;0.73;0.52;;;;;;;13.27;100.00;95359.84;1047223;28;20139;-65
2021/08/08 00:25:49;;;;;;;0.32;0.32;;;;;;;13.25;100.00;95356.75;1043014;28;20021;-65
2021/08/08 00:26:20;;;;;;;5.82;0.50;;;;;;;13.26;100.00;95358.28;1043560;28;20029;-65
2021/08/08 00:26:51;;;;;;;0.52;0.32;;;;;;;13.25;100.00;95362.00;1038811;28;20292;-65
2021/08/08 00:27:22;;;;;;;3.72;0.60;;;;;;;13.24;100.00;95364.88;1039390;28;20041;-65
2021/08/08 00:27:52;;;;;;;0.95;0.30;;;;;;;13.22;100.00;95357.28;1043977;28;20271;-65
2021/08/08 00:28:23;;;;;;;2.03;0.40;;;;;;;13.25;100.00;95358.59;1047055;28;20052;-65
2021/08/08 00:28:53;;;;;;;3.35;0.75;;;;;;;13.23;100.00;95358.06;1046752;28;20119;-65
2021/08/08 00:29:23;;;;;;;3.50;0.50;;;;;;;13.22;100.00;95357.28;1043019;28;20503;-65
2021/08/08 00:29:54;;;;;;;1.70;0.50;;;;;;;13.22;100.00;95357.28;1038429;28;20039;-64
2021/08/08 00:30:24;;;;;;;4.68;0.38;;;;;;;13.20;100.00;95354.13;1034766;28;20033;-65
2021/08/08 00:30:55;;;;;;;6.35;0.50;;;;;;;13.20;100.00;95364.69;1030233;28;20034;-65
2021/08/08 00:31:25;;;;;;;2.03;0.28;;;;;;;13.19;100.00;95363.13;1032896;28;20119;-65
2021/08/08 00:31:56;;;;;;;0.40;0.40;;;;;;;13.18;100.00;95362.34;1034117;28;20030;-65
2021/08/08 00:32:26;;;;;;;2.25;0.30;;;;;;;13.16;100.00;95368.97;1034950;28;20030;-65
2021/08/08 00:32:57;;;;;;;1.13;0.40;;;;;;;13.18;100.00;95361.56;1037921;28;20064;-65
2021/08/08 00:33:27;;;;;;;2.30;0.52;;;;;;;13.16;100.00;95358.44;1038600;28;20029;-64
2021/08/08 00:33:58;;;;;;;1.88;0.63;;;;;;;13.08;100.00;95348.56;1031270;28;20022;-65
2021/08/08 00:34:28;;;;;;;1.27;0.68;;;;;;;13.12;100.00;95357.44;1030998;28;20026;-62
2021/08/08 00:34:59;;;;;;;3.03;0.40;;;;;;;13.13;100.00;95364.25;1038028;28;20809;-65
2021/08/08 00:35:29;;;;;;;1.45;0.55;;;;;;;13.08;100.00;95356.47;1034341;28;20014;-65
2021/08/08 00:36:00;;;;;;;2.25;0.30;;;;;;;13.12;100.00;95357.44;1030891;28;20014;-64
2021/08/08 00:36:30;;;;;;;0.82;0.40;;;;;;;13.11;100.00;95361.94;1030759;28;20068;-65
2021/08/08 00:37:01;;;;;;;1.45;0.30;;;;;;;13.11;100.00;95359.28;1037326;28;20520;-65
2021/08/08 00:37:31;;;;;;;3.78;0.50;;;;;;;13.12;100.00;95358.22;1043013;28;20796;-65
2021/08/08 00:38:01;;;;;;;3.28;0.40;;;;;;;13.14;100.00;95357.91;1034596;28;20476;-65
2021/08/08 00:38:32;;;;;;;2.03;0.70;;;;;;;13.14;100.00;95357.91;1031866;28;20369;-65
2021/08/08 00:39:03;;;;;;;2.60;0.32;;;;;;;13.13;100.00;95351.88;1034610;28;20029;-65
2021/08/08 00:39:35;;;;;;;6.15;0.60;;;;;;;13.18;100.00;95356.28;1031295;28;20015;-65
2021/08/08 00:40:06;;;;;;;1.70;0.35;;;;;;;13.15;100.00;95344.47;1038569;28;20373;-62
2021/08/08 00:40:39;;;;;;;1.80;0.20;;;;;;;13.26;100.00;95357.50;1037947;28;20354;-64
2021/08/08 00:41:09;;;;;;;2.17;0.47;;;;;;;13.23;100.00;95356.19;1038594;28;20701;-65
2021/08/08 00:41:40;;;;;;;3.03;0.60;;;;;;;13.26;100.00;95363.56;1038883;28;20268;-62
2021/08/08 00:42:10;;;;;;;4.15;0.60;;;;;;;13.26;100.00;95358.28;1043104;28;20573;-65
2021/08/08 00:42:42;;;;;;;3.50;0.50;;;;;;;13.26;100.00;95358.28;1047430;28;20445;-65
2021/08/08 00:43:13;;;;;;;1.88;0.73;;;;;;;13.26;100.00;95363.56;1042905;28;20017;-65
2021/08/08 00:43:43;;;;;;;3.85;0.50;;;;;;;13.26;100.00;95354.88;1036108;28;20257;-66
2021/08/08 00:44:13;;;;;;;0.32;0.30;;;;;;;13.29;100.00;95360.34;1035027;28;20025;-65
2021/08/08 00:44:44;;;;;;;2.05;0.60;;;;;;;13.31;100.00;95355.59;1035079;28;20018;-65
2021/08/08 00:45:15;;;;;;;5.47;0.50;;;;;;;13.32;100.00;95357.13;1039215;28;20534;-63
2021/08/08 00:45:46;;;;;;;2.25;0.45;;;;;;;13.31;100.00;95347.69;1043307;28;20025;-65
2021/08/08 00:46:16;;;;;;;4.45;0.43;;;;;;;13.33;100.00;95352.66;1047260;28;20360;-62
2021/08/08 00:46:47;;;;;;;2.50;0.40;;;;;;;13.33;100.00;95345.53;1047384;28;20028;-66
2021/08/08 00:47:17;;;;;;;1.23;0.40;;;;;;;13.34;100.00;95339.16;1042553;28;20032;-65
2021/08/08 00:47:48;;;;;;;0.50;0.50;;;;;;;13.37;100.00;95343.09;1047264;28;20032;-67
2021/08/08 00:48:18;;;;;;;0.47;0.47;;;;;;;13.38;100.00;95340.19;1039158;28;20112;-65
2021/08/08 00:48:49;;;;;;;4.35;0.40;;;;;;;13.40;100.00;95343.28;1038717;28;20033;-65
2021/08/08 00:49:19;;;;;;;0.90;0.35;;;;;;;13.37;100.00;95333.31;1039067;28;20036;-65
2021/08/08 00:49:50;;;;;;;2.08;0.45;;;;;;;13.42;100.00;95343.00;1035076;28;20088;-66
2021/08/08 00:50:20;;;;;;;0.40;0.40;;;;;;;13.40;100.00;95338.03;1039247;28;20037;-65
2021/08/08 00:50:50;;;;;;;3.67;0.43;;;;;;;13.43;100.00;95342.72;1035610;28;20030;-65
2021/08/08 00:51:21;;;;;;;2.53;0.43;;;;;;;13.44;100.00;95346.13;1026899;28;20057;-65
2021/08/08 00:51:51;;;;;;;0.90;0.30;;;;;;;13.27;100.00;95315.06;1026383;28;20031;-65
2021/08/08 00:52:22;;;;;;;1.08;0.60;;;;;;;13.41;100.00;95342.25;1025918;28;20031;-65
2021/08/08 00:52:52;;;;;;;1.85;0.40;;;;;;;13.40;100.00;95343.28;1031094;28;20468;-65
2021/08/08 00:53:23;;;;;;;0.75;0.43;;;;;;;13.36;100.00;95331.00;1031080;28;20559;-65
2021/08/08 00:53:53;;;;;;;2.10;0.60;;;;;;;13.42;100.00;95341.16;1030583;28;20587;-66
2021/08/08 00:54:24;;;;;;;3.65;0.35;;;;;;;13.39;100.00;95341.72;1035172;28;20516;-66
2021/08/08 00:54:54;;;;;;;2.15;0.57;;;;;;;13.36;100.00;95337.03;1043199;28;20059;-66
2021/08/08 00:55:25;;;;;;;0.90;0.45;;;;;;;13.44;100.00;95340.84;1034361;28;20036;-64
2021/08/08 00:55:55;;;;;;;0.55;0.40;;;;;;;13.43;100.00;95342.72;1034845;28;20038;-62
2021/08/08 00:56:26;;;;;;;4.32;0.40;;;;;;;13.46;100.00;95340.59;1035219;28;20049;-65
2021/08/08 00:56:56;;;;;;;3.00;0.50;;;;;;;13.44;100.00;95343.50;1039034;28;20588;-62
2021/08/08 00:57:27;;;;;;;1.75;0.30;;;;;;;13.44;100.00;95344.28;1040139;28;20088;-66
2021/08/08 00:57:57;;;;;;;1.20;0.55;;;;;;;13.47;100.00;95344.78;1035004;28;20026;-66
2021/08/08 00:58:28;;;;;;;2.22;0.40;;;;;;;13.47;100.00;95345.56;1043184;28;20051;-65
2021/08/08 00:58:58;;;;;;;7.63;0.75;;;;;;;13.46;100.00;95345.84;1040029;28;20032;-66
2021/08/08 00:59:28;;;;;;;1.77;0.40;;;;;;;13.47;100.00;95344.78;1043206;28;20108;-65
2021/08/08 00:59:59;;;;;;;2.05;0.60;;;;;;;13.38;100.00;95319.09;1047168;28;20029;-65
2021/08/08 01:00:29;;;;;;;0.38;0.38;;;;;;;13.49;100.00;95340.00;1030883;28;20066;-65
2021/08/08 01:01:01;;;;;;;1.63;0.75;;;;;;;13.48;100.00;95338.41;1030817;28;20038;-65
2021/08/08 01:01:39;;;;;;;3.72;0.52;;;;;;;13.39;100.00;95325.94;1034948;28;20017;-65
2021/08/08 01:02:10;;;;;;;0.40;0.30;;;;;;;13.45;100.00;95329.25;1031887;28;20663;-65
2021/08/08 01:02:49;;;;;;;1.73;0.30;;;;;;;13.43;100.00;95334.81;1030320;28;20266;-65
2021/08/08 01:03:19;;;;;;;1.92;0.57;;;;;;;13.44;100.00;95338.22;1031134;28;20412;-65
2021/08/08 01:03:50;;;;;;;4.55;0.70;;;;;;;13.42;100.00;95341.16;1034737;28;20288;-66
2021/08/08 01:04:22;;;;;;;1.38;0.63;;;;;;;13.40;100.00;95334.59;1027409;28;20062;-66
2021/08/08 01:05:00;;;;;;;4.18;0.60;;;;;;;13.35;100.00;95335.50;1030900;28;20029;-65
2021/08/08 01:05:34;;;;;;;2.15;0.40;;;;;;;13.41;100.00;95336.16;1039130;28;20776;-64
2021/08/08 01:06:17;;;;;;;4.72;0.73;;;;;;;13.41;100.00;95330.88;1042584;28;20257;-65
2021/08/08 01:07:02;;;;;;;2.85;0.50;;;;;;;13.43;100.00;95337.44;1038895;28;20292;-66
2021/08/08 01:07:53;;;;;;;4.28;0.45;;;;;;;13.40;100.00;95338.03;1038589;28;20304;-64
2021/08/08 01:08:26;;;;;;;5.63;0.52;;;;;;;13.40;100.00;95338.03;1039606;28;20306;-65
2021/08/08 01:08:59;;;;;;;2.08;0.30;;;;;;;13.37;100.00;95340.44;1043067;28;20303;-65
2021/08/08 01:09:29;;;;;;;0.88;0.20;;;;;;;13.37;100.00;95338.59;1042282;28;20267;-66
2021/08/08 01:10:00;;;;;;;1.25;0.47;;;;;;;13.37;100.00;95337.81;1043149;28;20346;-65
2021/08/08 01:10:33;;;;;;;0.38;0.38;;;;;;;13.35;100.00;95334.72;1042518;28;20039;-65
2021/08/08 01:11:04;;;;;;;1.38;0.75;;;;;;;13.34;100.00;95338.41;1037492;28;20029;-65
2021/08/08 01:11:34;;;;;;;3.72;0.95;;;;;;;13.29;100.00;95335.84;1035137;28;20697;-65
2021/08/08 01:12:05;;;;;;;1.15;0.40;;;;;;;13.31;100.00;95342.41;1026184;28;20022;-65
2021/08/08 01:12:37;;;;;;;2.40;0.50;;;;;;;13.30;100.00;95332.91;1028528;28;20655;-66
2021/08/08 01:13:08;;;;;;;2.60;0.30;;;;;;;13.29;100.00;95343.75;1038976;28;20044;-65
2021/08/08 01:13:38;;;;;;;4.30;0.45;;;;;;;13.23;100.00;95337.75;1035584;28;20800;-65
2021/08/08 01:14:09;;;;;;;3.13;0.68;;;;;;;13.28;100.00;95344.81;1038204;28;20485;-63
2021/08/08 01:14:40;;;;;;;2.03;0.45;;;;;;;13.27;100.00;95344.03;1041693;28;20053;-65
2021/08/08 01:15:10;;;;;;;1.83;0.50;;;;;;;13.26;100.00;95341.69;1039024;28;20032;-61
2021/08/08 01:15:41;;;;;;;3.67;0.40;;;;;;;13.23;100.00;95348.28;1039117;28;20025;-65
2021/08/08 01:16:12;;;;;;;1.30;0.40;;;;;;;13.26;100.00;95345.13;1034368;28;20033;-66
2021/08/08 01:16:43;;;;;;;1.75;0.65;;;;;;;13.26;100.00;95353.03;1031158;28;20034;-65
2021/08/08 01:17:14;;;;;;;3.85;0.75;;;;;;;13.25;100.00;95348.84;1035224;28;20269;-65
2021/08/08 01:17:44;;;;;;;0.35;0.35;;;;;;;13.19;100.00;95342.03;1039599;28;20418;-67
2021/08/08 01:18:15;;;;;;;4.40;0.50;;;;;;;13.20;100.00;95339.09;1030991;28;20026;-65
2021/08/08 01:18:46;;;;;;;1.45;0.40;;;;;;;13.26;100.00;95342.47;1034758;28;20026;-65
2021/08/08 01:19:17;;;;;;;3.53;0.40;;;;;;;13.29;100.00;95351.66;1026843;28;20125;-65
2021/08/08 01:20:08;;;;;;;3.35;0.50;;;;;;;13.33;100.00;95353.44;1032797;28;20030;-65
2021/08/08 01:20:38;;;;;;;0.55;0.52;;;;;;;13.32;100.00;95359.78;1037610;28;20746;-66
2021/08/08 01:21:08;;;;;;;2.90;0.68;;;;;;;13.31;100.00;95350.31;1034840;28;20041;-65
2021/08/08 01:21:39;;;;;;;2.88;0.40;;;;;;;13.17;100.00;95337.03;1037538;28;20526;-63
2021/08/08 01:22:10;;;;;;;3.00;0.50;;;;;;;13.32;100.00;95359.78;1030910;28;20105;-66
2021/08/08 01:22:45;;;;;;;5.32;0.60;;;;;;;13.29;100.00;95354.31;1034818;28;20130;-62
2021/08/08 01:23:16;;;;;;;1.30;0.30;;;;;;;13.29;100.00;95352.44;1038948;28;20043;-65
2021/08/08 01:23:57;;;;;;;2.40;0.30;;;;;;;13.33;100.00;95358.69;1035086;28;20037;-62
2021/08/08 01:24:27;;;;;;;2.75;0.50;;;;;;;13.30;100.00;95354.00;1027574;28;20118;-65
2021/08/08 01:24:58;;;;;;;0.88;0.45;;;;;;;13.31;100.00;95352.94;1026828;28;20277;-65
2021/08/08 01:25:29;;;;;;;2.20;0.47;;;;;;;13.26;100.00;95347.75;1028441;28;20516;-65
2021/08/08 01:25:59;;;;;;;3.60;0.40;;;;;;;13.32;100.00;95359.78;1026772;28;20019;-65
2021/08/08 01:26:31;;;;;;;1.45;0.43;;;;;;;13.30;100.00;95361.91;1031021;28;20030;-65
2021/08/08 01:27:02;;;;;;;0.70;0.45;;;;;;;13.24;100.00;95355.16;1038997;28;20025;-66
2021/08/08 01:27:32;;;;;;;2.83;0.90;;;;;;;13.29;100.00;95367.47;1043475;28;20040;-65
2021/08/08 01:28:03;;;;;;;1.25;0.43;;;;;;;13.29;100.00;95357.72;1038449;28;20278;-61
2021/08/08 01:28:34;;;;;;;3.85;0.65;;;;;;;13.27;100.00;95364.34;1030906;28;20088;-66
2021/08/08 01:29:04;;;;;;;1.98;0.85;;;;;;;13.27;100.00;95364.34;1026905;28;20019;-66
2021/08/08 01:29:34;;;;;;;3.20;0.60;;;;;;;13.21;100.00;95353.88;1023839;28;20019;-65
2021/08/08 01:30:06;;;;;;;1.83;0.45;;;;;;;13.28;100.00;95363.25;1030761;28;20006;-65
2021/08/08 01:30:36;;;;;;;2.75;0.70;;;;;;;13.27;100.00;95365.13;1035195;28;20032;-66
2021/08/08 01:31:07;;;;;;;5.78;0.73;;;;;;;13.28;100.00;95366.69;1038887;28;20601;-64
2021/08/08 01:31:37;;;;;;;5.20;0.60;;;;;;;13.28;100.00;95366.69;1042536;28;20025;-64
2021/08/08 01:32:08;;;;;;;1.05;0.45;;;;;;;13.28;100.00;95361.44;1042500;28;20055;-66
2021/08/08 01:32:38;;;;;;;1.85;0.32;;;;;;;13.28;100.00;95361.44;1043033;28;20035;-66
2021/08/08 01:33:09;;;;;;;3.10;0.73;;;;;;;13.30;100.00;95355.84;1043187;28;20079;-65
2021/08/08 01:33:40;;;;;;;4.80;0.70;;;;;;;13.32;100.00;95367.69;1034666;28;20021;-65
2021/08/08 01:34:10;;;;;;;3.63;0.73;;;;;;;13.32;100.00;95361.63;1035065;28;20503;-66
2021/08/08 01:34:40;;;;;;;5.25;0.50;;;;;;;13.33;100.00;95368.47;1034961;28;20589;-65
2021/08/08 01:35:12;;;;;;;4.88;0.80;;;;;;;13.33;100.00;95376.38;1034535;28;20466;-65
2021/08/08 01:35:43;;;;;;;3.10;0.52;;;;;;;13.33;100.00;95379.78;1034763;28;20100;-65
2021/08/08 01:36:16;;;;;;;2.05;0.57;;;;;;;13.28;100.00;95371.16;1035172;28;20033;-65
2021/08/08 01:36:47;;;;;;;4.10;0.70;;;;;;;13.30;100.00;95375.09;1031830;28;20030;-65
2021/08/08 01:37:18;;;;;;;0.60;0.38;;;;;;;13.32;100.00;95372.94;1030871;28;20266;-65
2021/08/08 01:37:49;;;;;;;2.97;0.60;;;;;;;13.31;100.00;95379.31;1030885;28;20494;-66
2021/08/08 01:38:20;;;;;;;4.68;0.70;;;;;;;13.32;100.00;95369.53;1030790;28;20324;-65
2021/08/08 01:39:10;;;;;;;3.28;1.00;;;;;;;13.32;100.00;95380.09;1027080;28;20050;-66
2021/08/08 01:39:40;;;;;;;3.78;0.57;;;;;;;13.29;100.00;95367.47;1034713;28;20029;-66
2021/08/08 01:40:15;;;;;;;5.80;0.60;;;;;;;13.32;100.00;95372.19;1027184;28;20046;-65
2021/08/08 01:40:52;;;;;;;3.28;0.60;;;;;;;13.29;100.00;95368.25;1030660;28;20025;-64
2021/08/08 01:41:22;;;;;;;2.90;0.80;;;;;;;13.34;100.00;95365.53;1034898;28;20030;-66
2021/08/08 01:41:57;;;;;;;2.08;0.90;;;;;;;13.33;100.00;95369.25;1036491;28;20754;-63
2021/08/08 01:42:27;;;;;;;7.25;1.00;;;;;;;13.27;100.00;95357.22;1038911;28;20650;-65
2021/08/08 01:42:58;;;;;;;2.88;0.40;;;;;;;13.29;100.00;95352.44;1031701;28;20309;-66
2021/08/08 01:43:29;;;;;;;2.55;0.40;;;;;;;13.34;100.00;95360.25;1034498;28;20025;-64
2021/08/08 01:44:00;;;;;;;2.00;0.40;;;;;;;13.34;100.00;95364.75;1036727;28;20053;-65
2021/08/08 01:44:42;;;;;;;3.90;0.98;;;;;;;13.34;100.00;95354.97;1029347;28;20261;-64
2021/08/08 01:45:13;;;;;;;1.27;0.50;;;;;;;13.33;100.00;95342.88;1034907;28;20033;-63
2021/08/08 01:45:43;;;;;;;4.28;0.60;;;;;;;13.33;100.00;95342.88;1031039;28;20277;-65
2021/08/08 01:46:14;;;;;;;2.72;0.50;;;;;;;13.32;100.00;95353.72;1031099;28;20269;-62
2021/08/08 01:46:46;;;;;;;1.85;0.75;;;;;;;13.30;100.00;95351.38;1027254;28;20026;-65
2021/08/08 01:47:18;;;;;;;3.63;1.30;;;;;;;13.29;100.00;95351.66;1027040;28;20033;-65
2021/08/08 01:47:50;;;;;;;4.63;0.95;;;;;;;13.28;100.00;95345.63;1031080;28;20327;-65
2021/08/08 01:48:21;;;;;;;1.83;0.50;;;;;;;13.27;100.00;95359.84;1031383;28;20293;-65
2021/08/08 01:48:52;;;;;;;3.83;0.60;;;;;;;13.27;100.00;95354.56;1030833;28;20348;-64
2021/08/08 01:49:25;;;;;;;1.45;0.40;;;;;;;13.22;100.00;95359.91;1040321;28;20033;-66
2021/08/08 01:49:55;;;;;;;1.25;0.60;;;;;;;13.22;100.00;95362.53;1039098;28;20796;-65
2021/08/08 01:50:31;;;;;;;0.60;0.50;;;;;;;13.17;100.00;95359.97;1030887;28;20273;-66
2021/08/08 01:51:01;;;;;;;3.65;0.65;;;;;;;13.21;100.00;95366.22;1031846;28;20027;-66
2021/08/08 01:51:31;;;;;;;6.78;0.52;;;;;;;13.18;100.00;95366.84;1028011;28;20254;-66
2021/08/08 01:52:02;;;;;;;3.50;0.50;;;;;;;13.23;100.00;95379.91;1026418;28;20026;-65
2021/08/08 01:52:35;;;;;;;2.28;0.40;;;;;;;13.16;100.00;95369.75;1033180;28;20062;-65
2021/08/08 01:53:06;;;;;;;3.20;1.00;;;;;;;13.24;100.00;95381.50;1034060;28;20034;-64
2021/08/08 01:53:37;;;;;;;2.90;0.40;;;;;;;13.24;100.00;95376.22;1040301;28;20279;-66
2021/08/08 01:54:07;;;;;;;3.22;0.68;;;;;;;13.27;100.00;95380.94;1031226;28;20072;-67
2021/08/08 01:54:38;;;;;;;2.58;0.43;;;;;;;13.26;100.00;95382.00;1035336;28;20429;-65
2021/08/08 01:55:08;;;;;;;6.78;0.60;;;;;;;13.26;100.00;95375.97;1039765;28;20489;-65
2021/08/08 01:55:39;;;;;;;4.38;0.55;;;;;;;13.21;100.00;95363.59;1033019;28;20082;-66
2021/08/08 01:56:12;;;;;;;3.90;0.80;;;;;;;13.28;100.00;95377.25;1035237;28;20025;-67
2021/08/08 01:56:42;;;;;;;7.82;0.90;;;;;;;13.27;100.00;95380.94;1035447;28;20671;-65
2021/08/08 01:57:13;;;;;;;0.50;0.40;;;;;;;13.30;100.00;95380.34;1036135;28;20272;-66
2021/08/08 01:57:43;;;;;;;2.65;0.50;;;;;;;13.28;100.00;95377.25;1036286;28;20034;-65
2021/08/08 01:58:14;;;;;;;1.25;0.60;;;;;;;13.30;100.00;95379.56;1043531;28;20068;-65
2021/08/08 01:58:44;;;;;;;2.33;0.50;;;;;;;13.33;100.00;95373.72;1039390;28;20033;-66
2021/08/08 01:59:15;;;;;;;2.13;0.63;;;;;;;13.33;100.00;95377.16;1035427;28;20383;-66
2021/08/08 01:59:45;;;;;;;4.68;0.88;;;;;;;13.29;100.00;95378.03;1035316;28;20018;-66
2021/08/08 02:00:19;;;;;;;2.95;0.80;;;;;;;13.35;100.00;95379.50;1035246;28;20555;-66
2021/08/08 02:00:50;;;;;;;3.58;0.60;;;;;;;13.34;100.00;95375.28;1039786;28;20028;-66
2021/08/08 02:01:22;;;;;;;3.88;0.68;;;;;;;13.32;100.00;95378.22;1046541;28;20263;-66
2021/08/08 02:01:52;;;;;;;3.15;0.70;;;;;;;13.33;100.00;95373.72;1038993;28;20510;-64
2021/08/08 02:02:22;;;;;;;1.33;0.63;;;;;;;13.31;100.00;95371.41;1039000;28;20316;-64
2021/08/08 02:02:55;;;;;;;1.73;0.57;;;;;;;13.30;100.00;95369.03;1039369;28;20021;-65
2021/08/08 02:03:35;;;;;;;2.13;0.70;;;;;;;13.33;100.00;95379.78;1032073;28;20650;-63
2021/08/08 02:04:18;;;;;;;5.60;0.70;;;;;;;13.30;100.00;95380.34;1038821;28;20338;-65
2021/08/08 02:04:49;;;;;;;2.05;0.70;;;;;;;13.28;100.00;95371.97;1035311;28;20042;-65
2021/08/08 02:05:19;;;;;;;1.92;0.60;;;;;;;13.24;100.00;95370.97;1042587;28;20666;-65
2021/08/08 02:05:50;;;;;;;4.45;0.88;;;;;;;13.30;100.00;95384.84;1040708;28;20537;-66
2021/08/08 02:06:20;;;;;;;1.38;0.50;;;;;;;13.26;100.00;95382.00;1043340;28;20044;-65
2021/08/08 02:06:51;;;;;;;4.57;1.05;;;;;;;13.23;100.00;95379.13;1035439;28;20033;-65
2021/08/08 02:07:22;;;;;;;1.95;0.57;;;;;;;13.29;100.00;95380.66;1038941;28;20109;-66
2021/08/08 02:07:53;;;;;;;5.15;0.60;;;;;;;13.28;100.00;95387.78;1042302;28;20219;-66
2021/08/08 02:08:23;;;;;;;1.05;0.50;;;;;;;13.25;100.00;95383.09;1043543;28;20291;-65
2021/08/08 02:08:54;;;;;;;2.13;0.60;;;;;;;13.25;100.00;95380.44;1043549;28;20032;-65
2021/08/08 02:09:24;;;;;;;3.65;0.60;;;;;;;13.24;100.00;95381.50;1043414;28;20076;-66
2021/08/08 02:09:54;;;;;;;3.97;0.57;;;;;;;13.25;100.00;95391.00;1043548;28;20418;-65
2021/08/08 02:10:25;;;;;;;2.50;0.60;;;;;;;13.23;100.00;95379.91;1047540;28;20740;-66
2021/08/08 02:10:55;;;;;;;10.02;1.33;;;;;;;13.17;100.00;95376.56;1042817;28;20608;-65
2021/08/08 02:11:26;;;;;;;0.50;0.43;;;;;;;13.21;100.00;95382.03;1039520;28;20431;-66
2021/08/08 02:11:56;;;;;;;4.53;0.80;;;;;;;13.19;100.00;95386.84;1038612;28;20033;-62
2021/08/08 02:12:28;;;;;;;2.90;0.60;;;;;;;13.20;100.00;95383.13;1043290;28;20075;-65
2021/08/08 02:12:58;;;;;;;1.05;0.50;;;;;;;13.23;100.00;95384.41;1043723;28;20040;-66
2021/08/08 02:13:29;;;;;;;4.18;1.05;;;;;;;13.21;100.00;95387.31;1043755;28;20263;-65
2021/08/08 02:13:59;;;;;;;1.63;0.65;;;;;;;13.21;100.00;95380.22;1043499;28;20080;-65
2021/08/08 02:14:30;;;;;;;2.45;0.47;;;;;;;13.15;100.00;95378.72;1042807;28;20040;-65
2021/08/08 02:15:00;;;;;;;2.05;0.60;;;;;;;13.17;100.00;95388.97;1035214;28;20066;-65
2021/08/08 02:15:31;;;;;;;5.60;0.85;;;;;;;13.14;100.00;95386.91;1035486;28;20034;-65
2021/08/08 02:16:01;;;;;;;3.92;0.73;;;;;;;13.13;100.00;95386.13;1039942;28;20101;-64
2021/08/08 02:16:32;;;;;;;3.33;0.50;;;;;;;13.14;100.00;95386.91;1038552;28;20032;-65
2021/08/08 02:17:03;;;;;;;2.55;0.60;;;;;;;13.13;100.00;95386.13;1047548;28;20024;-65
2021/08/08 02:17:33;;;;;;;2.00;0.45;;;;;;;13.12;100.00;95386.41;1039217;28;20017;-65
2021/08/08 02:18:04;;;;;;;1.60;0.80;;;;;;;13.09;100.00;95379.88;1039381;28;20029;-65
2021/08/08 02:18:34;;;;;;;2.50;0.55;;;;;;;13.09;100.00;95385.13;1039604;28;20427;-65
2021/08/08 02:19:05;;;;;;;5.25;0.77;;;;;;;13.08;100.00;95385.44;1039138;28;20527;-66
2021/08/08 02:19:35;;;;;;;5.30;0.50;;;;;;;13.01;100.00;95383.16;1042221;28;20659;-65
2021/08/08 02:20:08;;;;;;;0.80;0.63;;;;;;;13.05;100.00;95392.06;1039422;28;20080;-66
2021/08/08 02:20:38;;;;;;;2.67;0.45;;;;;;;13.00;100.00;95380.81;1043795;28;20522;-65
2021/08/08 02:21:09;;;;;;;1.85;0.75;;;;;;;13.04;100.00;95390.47;1043231;28;20263;-66
2021/08/08 02:21:39;;;;;;;5.45;0.70;;;;;;;13.03;100.00;95393.41;1043711;28;20021;-63
2021/08/08 02:22:10;;;;;;;2.85;0.57;;;;;;;13.05;100.00;95393.91;1042779;28;20060;-66
2021/08/08 02:22:40;;;;;;;6.35;0.88;;;;;;;13.06;100.00;95395.47;1043003;28;20032;-62
2021/08/08 02:23:11;;;;;;;4.07;0.65;;;;;;;13.08;100.00;95394.13;1043677;28;20498;-65
2021/08/08 02:23:50;;;;;;;5.45;0.95;;;;;;;13.05;100.00;95399.94;1039652;28;20546;-64
2021/08/08 02:24:21;;;;;;;4.32;0.98;;;;;;;13.04;100.00;95402.84;1039594;28;20729;-66
2021/08/08 02:24:51;;;;;;;2.50;0.60;;;;;;;13.03;100.00;95406.56;1038808;28;20025;-64
2021/08/08 02:25:22;;;;;;;2.75;0.70;;;;;;;13.04;100.00;95400.22;1040670;28;20034;-65
2021/08/08 02:25:52;;;;;;;0.65;0.65;;;;;;;13.02;100.00;95405.00;1035281;28;20021;-62